Time;durP1;ratioP1;P1;durP2;ratioP2;P2;SDS_P1;SDS_P2;PMS_P1;PMS_P2;Temp;Humidity;BMP_temperature;BMP_pressure;BME280_temperature;BME280_humidity;BME280_pressure;Samples;Min_cycle;Max_cycle;Signal;HPM_P1;HPM_P2
2023/07/24 00:01:58;;;;;;;1.13;1.00;;;19.80;99.90;;;;;;5046780;28;20048;-41
2023/07/24 00:04:24;;;;;;;1.10;1.10;;;19.80;99.90;;;;;;5046959;28;20035;-41
2023/07/24 00:06:49;;;;;;;1.33;1.23;;;19.80;99.90;;;;;;5046249;28;20424;-41
2023/07/24 00:09:15;;;;;;;1.30;1.00;;;19.80;99.90;;;;;;5047001;28;20059;-42
2023/07/24 00:11:40;;;;;;;1.50;1.40;;;19.80;99.90;;;;;;5047404;28;20698;-42
2023/07/24 00:14:06;;;;;;;1.10;1.00;;;19.80;99.90;;;;;;5045935;28;20376;-42
2023/07/24 00:16:32;;;;;;;1.17;1.05;;;19.80;99.90;;;;;;5046277;28;20025;-42
2023/07/24 00:18:57;;;;;;;1.17;1.10;;;19.80;99.90;;;;;;5046443;28;20122;-42
2023/07/24 00:21:23;;;;;;;1.48;1.20;;;19.80;99.90;;;;;;5046408;28;20040;-42
2023/07/24 00:23:48;;;;;;;1.30;1.20;;;19.80;99.90;;;;;;5046703;28;20392;-41
2023/07/24 00:26:14;;;;;;;2.00;1.20;;;19.80;99.90;;;;;;5045991;28;20029;-42
2023/07/24 00:28:40;;;;;;;1.30;1.20;;;19.80;99.90;;;;;;5046065;28;20108;-42
2023/07/24 00:31:05;;;;;;;1.13;1.08;;;19.80;99.90;;;;;;5046542;28;20672;-41
2023/07/24 00:33:31;;;;;;;1.20;1.13;;;19.70;99.90;;;;;;5046564;28;20049;-41
2023/07/24 00:35:59;;;;;;;1.13;1.00;;;19.70;99.90;;;;;;5046375;28;20037;-41
2023/07/24 00:38:25;;;;;;;1.40;1.30;;;19.70;99.90;;;;;;5046581;28;20127;-42
2023/07/24 00:40:51;;;;;;;1.30;1.20;;;19.70;99.90;;;;;;5045161;28;20125;-42
2023/07/24 00:43:17;;;;;;;1.13;1.10;;;19.70;99.90;;;;;;5046451;28;20472;-43
2023/07/24 00:45:45;;;;;;;1.55;1.17;;;19.70;99.90;;;;;;5045786;28;20054;-41
2023/07/24 00:48:10;;;;;;;0.85;0.85;;;19.70;99.90;;;;;;5045506;28;20048;-42
2023/07/24 00:50:37;;;;;;;1.33;1.00;;;19.70;99.90;;;;;;5045726;28;20079;-42
2023/07/24 00:53:03;;;;;;;1.15;1.05;;;19.70;99.90;;;;;;5046105;28;20419;-42
2023/07/24 00:55:29;;;;;;;2.72;1.30;;;19.70;99.90;;;;;;5045527;28;20371;-42
2023/07/24 00:57:58;;;;;;;2.80;1.35;;;19.70;99.90;;;;;;5045508;28;20539;-42
2023/07/24 01:00:23;;;;;;;2.20;1.20;;;19.70;99.90;;;;;;5046064;28;20029;-42
2023/07/24 01:02:49;;;;;;;1.50;1.05;;;19.70;99.90;;;;;;5044986;28;20029;-42
2023/07/24 01:05:16;;;;;;;1.98;1.50;;;19.60;99.90;;;;;;5045732;28;20439;-43
2023/07/24 01:07:41;;;;;;;2.55;1.23;;;19.60;99.90;;;;;;5045617;28;20086;-42
2023/07/24 01:10:07;;;;;;;1.30;1.20;;;19.60;99.90;;;;;;5044605;28;20044;-43
2023/07/24 01:12:44;;;;;;;1.35;1.23;;;19.60;99.90;;;;;;5045365;28;20061;-42
2023/07/24 01:15:55;;;;;;;1.30;1.17;;;19.60;99.90;;;;;;5025411;28;20033;-42
2023/07/24 01:18:23;;;;;;;1.33;1.23;;;19.60;99.90;;;;;;5037375;28;20618;-42
2023/07/24 01:20:53;;;;;;;1.10;1.00;;;19.60;99.90;;;;;;5045809;28;20496;-42
2023/07/24 01:23:50;;;;;;;1.10;1.00;;;19.50;99.90;;;;;;5044052;28;20017;-42
2023/07/24 01:26:16;;;;;;;1.48;1.13;;;19.50;99.90;;;;;;5045314;28;20033;-42
2023/07/24 01:28:42;;;;;;;1.30;1.20;;;19.60;99.90;;;;;;5041794;28;20104;-40
2023/07/24 01:31:08;;;;;;;1.48;1.20;;;19.60;99.90;;;;;;5044546;28;20152;-41
2023/07/24 01:33:37;;;;;;;1.30;1.20;;;19.60;99.90;;;;;;5045019;28;20424;-40
2023/07/24 01:36:07;;;;;;;1.50;1.40;;;19.60;99.90;;;;;;5045320;28;20032;-42
2023/07/24 01:38:35;;;;;;;1.60;1.50;;;19.70;99.90;;;;;;5044195;28;20041;-41
2023/07/24 01:41:01;;;;;;;1.60;1.50;;;19.70;99.90;;;;;;5045034;28;20096;-41
2023/07/24 01:43:28;;;;;;;2.13;1.92;;;19.70;99.90;;;;;;5044873;28;20130;-41
2023/07/24 01:45:54;;;;;;;2.20;2.00;;;19.60;99.90;;;;;;5045387;28;20388;-41
2023/07/24 01:48:20;;;;;;;2.53;1.90;;;19.60;99.90;;;;;;5044787;28;20419;-42
2023/07/24 01:50:45;;;;;;;1.95;1.80;;;19.60;99.90;;;;;;5044319;28;20531;-41
2023/07/24 01:53:11;;;;;;;2.97;1.80;;;19.60;99.90;;;;;;5044028;28;20504;-42
2023/07/24 01:55:37;;;;;;;2.20;2.00;;;19.50;99.90;;;;;;5044973;28;20036;-42
2023/07/24 01:58:02;;;;;;;3.05;2.30;;;19.50;99.90;;;;;;5043626;28;20147;-41
2023/07/24 02:00:28;;;;;;;2.58;1.90;;;19.50;99.90;;;;;;5045230;28;20028;-42
2023/07/24 02:02:54;;;;;;;2.17;1.90;;;19.50;99.90;;;;;;5044985;28;20048;-43
2023/07/24 02:05:20;;;;;;;2.05;1.95;;;19.50;99.90;;;;;;5043387;28;20781;-41
2023/07/24 02:07:45;;;;;;;2.10;1.90;;;19.50;99.90;;;;;;5044665;28;20037;-42
2023/07/24 02:10:11;;;;;;;2.25;2.05;;;19.40;99.90;;;;;;5044609;28;20055;-42
2023/07/24 02:12:39;;;;;;;1.80;1.70;;;19.50;99.90;;;;;;5044780;28;20075;-41
2023/07/24 02:15:06;;;;;;;1.67;1.58;;;19.50;99.90;;;;;;5044825;28;20028;-41
2023/07/24 02:17:31;;;;;;;1.75;1.65;;;19.50;99.90;;;;;;5044692;28;20041;-42
2023/07/24 02:19:57;;;;;;;2.00;1.80;;;19.50;99.90;;;;;;5044443;28;20554;-41
2023/07/24 02:22:23;;;;;;;1.83;1.60;;;19.50;99.90;;;;;;5045100;28;20028;-42
2023/07/24 02:24:49;;;;;;;1.70;1.60;;;19.50;99.90;;;;;;5044400;28;20043;-41
2023/07/24 02:27:26;;;;;;;1.98;1.88;;;19.50;99.90;;;;;;5044649;28;20025;-42
2023/07/24 02:29:51;;;;;;;1.90;1.80;;;19.50;99.90;;;;;;5044290;28;20056;-42
2023/07/24 02:32:17;;;;;;;2.33;1.60;;;19.60;99.90;;;;;;5044905;28;20489;-42
2023/07/24 02:34:43;;;;;;;1.92;1.80;;;19.60;99.90;;;;;;5043973;28;20025;-43
2023/07/24 02:37:08;;;;;;;1.92;1.80;;;19.60;99.90;;;;;;5044674;28;20045;-42
2023/07/24 02:39:37;;;;;;;1.67;1.58;;;19.60;99.90;;;;;;5044716;28;20450;-42
2023/07/24 02:42:03;;;;;;;1.77;1.67;;;19.60;99.90;;;;;;5044418;28;20477;-42
2023/07/24 02:44:28;;;;;;;2.20;1.80;;;19.70;99.90;;;;;;5046869;28;20024;-41
2023/07/24 02:46:54;;;;;;;1.80;1.70;;;19.70;99.90;;;;;;5047910;28;20499;-41
2023/07/24 02:49:19;;;;;;;1.73;1.63;;;19.70;99.90;;;;;;5047902;28;20158;-41
2023/07/24 02:51:50;;;;;;;2.00;1.80;;;19.60;99.90;;;;;;5048286;28;20032;-41
2023/07/24 02:54:15;;;;;;;2.47;1.70;;;19.70;99.90;;;;;;5047142;28;20482;-42
2023/07/24 02:56:41;;;;;;;2.35;1.70;;;19.70;99.90;;;;;;5048368;28;20154;-42
2023/07/24 02:59:06;;;;;;;2.63;1.77;;;19.70;99.90;;;;;;5048540;28;20041;-42
2023/07/24 03:01:32;;;;;;;1.85;1.75;;;19.60;99.90;;;;;;5046922;28;20036;-42
2023/07/24 03:04:05;;;;;;;1.85;1.75;;;19.60;99.90;;;;;;5048424;28;20064;-42
2023/07/24 03:06:31;;;;;;;2.13;1.92;;;19.60;99.90;;;;;;5048114;28;20503;-42
2023/07/24 03:08:56;;;;;;;2.40;2.20;;;19.60;99.90;;;;;;5047872;28;20140;-42
2023/07/24 03:11:22;;;;;;;2.35;2.15;;;19.60;99.90;;;;;;5048456;28;20044;-41
2023/07/24 03:13:47;;;;;;;1.83;1.73;;;19.60;99.90;;;;;;5047768;28;20032;-42
2023/07/24 03:16:20;;;;;;;2.67;1.80;;;19.60;99.90;;;;;;5047142;28;20052;-41
2023/07/24 03:18:46;;;;;;;1.98;1.83;;;19.70;99.90;;;;;;5047535;28;20113;-42
2023/07/24 03:21:12;;;;;;;2.28;2.08;;;19.60;99.90;;;;;;5047318;28;20108;-42
2023/07/24 03:23:37;;;;;;;2.40;2.00;;;19.70;99.90;;;;;;5046797;28;20029;-42
2023/07/24 03:26:03;;;;;;;2.28;1.90;;;19.70;99.90;;;;;;5047607;28;20013;-42
2023/07/24 03:28:28;;;;;;;2.30;1.88;;;19.70;99.90;;;;;;5047549;28;20741;-42
2023/07/24 03:30:54;;;;;;;2.03;1.90;;;19.70;99.90;;;;;;5046464;28;20025;-43
2023/07/24 03:33:20;;;;;;;1.88;1.77;;;19.70;99.90;;;;;;5047681;28;20103;-43
2023/07/24 03:35:49;;;;;;;3.97;2.15;;;19.80;99.90;;;;;;5046763;28;20358;-43
2023/07/24 03:38:14;;;;;;;2.58;2.25;;;19.80;99.90;;;;;;5046537;28;20141;-42
2023/07/24 03:40:40;;;;;;;2.40;2.20;;;19.70;99.90;;;;;;5046869;28;20108;-42
2023/07/24 03:43:05;;;;;;;2.40;2.20;;;19.80;99.90;;;;;;5046285;28;20033;-43
2023/07/24 03:45:31;;;;;;;2.60;2.15;;;19.70;99.90;;;;;;5047861;28;20748;-43
2023/07/24 03:47:57;;;;;;;2.30;2.10;;;19.70;99.90;;;;;;5047113;28;20771;-41
2023/07/24 03:50:22;;;;;;;2.40;2.20;;;19.70;99.90;;;;;;5046928;28;20055;-42
2023/07/24 03:52:48;;;;;;;2.65;2.20;;;19.70;99.90;;;;;;5047646;28;20055;-42
2023/07/24 03:55:16;;;;;;;3.25;2.75;;;19.70;99.90;;;;;;5046670;28;20024;-43
2023/07/24 03:57:42;;;;;;;2.20;2.00;;;19.70;99.90;;;;;;5046571;28;20086;-42
2023/07/24 04:00:08;;;;;;;2.38;2.05;;;19.70;99.90;;;;;;5047536;28;20029;-42
2023/07/24 04:02:34;;;;;;;2.40;2.20;;;19.60;99.90;;;;;;5046587;28;20024;-42
2023/07/24 04:04:59;;;;;;;2.72;2.40;;;19.60;99.90;;;;;;5046216;28;20029;-41
2023/07/24 04:07:25;;;;;;;2.63;2.40;;;19.60;99.90;;;;;;5046961;28;20476;-41
2023/07/24 04:09:50;;;;;;;2.83;2.63;;;19.50;99.90;;;;;;5046167;28;20053;-41
2023/07/24 04:12:16;;;;;;;3.22;2.92;;;19.50;99.90;;;;;;5045694;28;20021;-41
2023/07/24 04:14:41;;;;;;;2.63;2.42;;;19.40;99.90;;;;;;5046968;28;20028;-41
2023/07/24 04:17:10;;;;;;;2.97;2.70;;;19.40;99.90;;;;;;5047163;28;20437;-42
2023/07/24 04:19:36;;;;;;;4.05;2.78;;;19.30;99.90;;;;;;5045656;28;20033;-41
2023/07/24 04:22:01;;;;;;;2.70;2.35;;;19.30;99.90;;;;;;5047400;28;20492;-41
2023/07/24 04:24:27;;;;;;;2.60;2.40;;;19.30;99.90;;;;;;5046718;28;20048;-41
2023/07/24 04:26:52;;;;;;;2.72;2.53;;;19.30;99.90;;;;;;5045872;28;20029;-42
2023/07/24 04:29:23;;;;;;;2.80;2.60;;;19.30;99.90;;;;;;5046677;28;20529;-42
2023/07/24 04:31:50;;;;;;;3.40;2.78;;;19.30;99.90;;;;;;5046104;28;20037;-41
2023/07/24 04:34:15;;;;;;;2.45;2.25;;;19.30;99.90;;;;;;5045350;28;20036;-41
2023/07/24 04:36:41;;;;;;;3.33;3.03;;;19.30;99.90;;;;;;5047046;28;20020;-41
2023/07/24 04:39:07;;;;;;;3.30;3.00;;;19.20;99.90;;;;;;5045809;28;20119;-42
2023/07/24 04:41:32;;;;;;;3.10;2.90;;;19.20;99.90;;;;;;5045736;28;20025;-41
2023/07/24 04:43:58;;;;;;;3.25;2.95;;;19.20;99.90;;;;;;5046254;28;20021;-42
2023/07/24 04:46:23;;;;;;;2.80;2.60;;;19.20;99.90;;;;;;5045662;28;20044;-42
2023/07/24 04:48:51;;;;;;;2.50;2.30;;;19.20;99.90;;;;;;5045662;28;20147;-42
2023/07/24 04:51:18;;;;;;;2.63;2.42;;;19.20;99.90;;;;;;5046001;28;20562;-42
2023/07/24 04:53:44;;;;;;;3.05;2.50;;;19.20;99.90;;;;;;5045219;28;20106;-41
2023/07/24 04:56:10;;;;;;;2.75;2.55;;;19.20;99.90;;;;;;5045525;28;20515;-41
2023/07/24 04:58:36;;;;;;;3.45;2.70;;;19.20;99.90;;;;;;5045337;28;20060;-42
2023/07/24 05:01:05;;;;;;;2.75;2.55;;;19.20;99.90;;;;;;5045356;28;20059;-42
2023/07/24 05:03:31;;;;;;;2.90;2.70;;;19.20;99.90;;;;;;5045674;28;20031;-42
2023/07/24 05:05:57;;;;;;;3.05;2.83;;;19.20;99.90;;;;;;5044965;28;20028;-42
2023/07/24 05:08:23;;;;;;;3.30;2.90;;;19.20;99.90;;;;;;5044856;28;20041;-42
2023/07/24 05:10:57;;;;;;;5.03;3.30;;;19.20;99.90;;;;;;5045644;28;20024;-42
2023/07/24 05:13:26;;;;;;;4.18;3.78;;;19.20;99.90;;;;;;5046471;28;20033;-41
2023/07/24 05:15:52;;;;;;;4.10;3.67;;;19.20;99.90;;;;;;5044690;28;20040;-43
2023/07/24 05:18:17;;;;;;;3.78;3.47;;;19.20;99.90;;;;;;5045710;28;20040;-41
2023/07/24 05:20:46;;;;;;;3.75;3.45;;;19.20;99.90;;;;;;5045038;28;20087;-41
2023/07/24 05:23:12;;;;;;;5.53;3.75;;;19.20;99.90;;;;;;5044352;28;20028;-41
2023/07/24 05:25:37;;;;;;;4.78;3.47;;;19.20;99.90;;;;;;5045797;28;20025;-42
2023/07/24 05:28:03;;;;;;;4.38;3.95;;;19.20;99.90;;;;;;5045086;28;20059;-42
2023/07/24 05:30:29;;;;;;;3.80;3.35;;;19.20;99.90;;;;;;5044784;28;20106;-42
2023/07/24 05:32:54;;;;;;;4.95;3.88;;;19.20;99.90;;;;;;5044931;28;20031;-42
2023/07/24 05:35:20;;;;;;;4.40;4.00;;;19.20;99.90;;;;;;5045156;28;20032;-43
2023/07/24 05:37:46;;;;;;;3.70;3.40;;;19.20;99.90;;;;;;5044744;28;20056;-40
2023/07/24 05:40:11;;;;;;;4.18;3.80;;;19.20;99.90;;;;;;5045442;28;20111;-42
2023/07/24 05:42:41;;;;;;;4.32;3.92;;;19.20;99.90;;;;;;5045230;28;20121;-42
2023/07/24 05:45:08;;;;;;;4.53;4.13;;;19.20;99.90;;;;;;5045148;28;20400;-42
2023/07/24 05:47:33;;;;;;;5.38;4.68;;;19.30;99.90;;;;;;5044660;28;20021;-42
2023/07/24 05:49:59;;;;;;;4.10;3.70;;;19.30;99.90;;;;;;5044698;28;20036;-42
2023/07/24 05:52:25;;;;;;;4.40;3.97;;;19.40;99.90;;;;;;5045285;28;20087;-42
2023/07/24 05:54:50;;;;;;;3.90;3.60;;;19.40;99.90;;;;;;5045406;28;20800;-42
2023/07/24 05:57:16;;;;;;;4.60;3.90;;;19.40;99.90;;;;;;5043760;28;20667;-43
2023/07/24 05:59:41;;;;;;;4.32;3.90;;;19.40;99.90;;;;;;5044832;28;20041;-42
2023/07/24 06:02:08;;;;;;;4.50;4.03;;;19.40;99.90;;;;;;5044474;28;20021;-42
2023/07/24 06:04:33;;;;;;;4.28;3.88;;;19.40;99.90;;;;;;5044537;28;20048;-41
2023/07/24 06:06:59;;;;;;;3.95;3.65;;;19.30;99.90;;;;;;5044701;28;20052;-42
2023/07/24 06:09:25;;;;;;;4.68;3.85;;;19.30;99.90;;;;;;5044651;28;20099;-42
2023/07/24 06:11:51;;;;;;;3.78;3.47;;;19.40;99.90;;;;;;5044496;28;20103;-42
2023/07/24 06:14:16;;;;;;;5.55;4.35;;;19.40;99.90;;;;;;5044832;28;20040;-42
2023/07/24 06:16:48;;;;;;;4.55;4.15;;;19.40;99.90;;;;;;5044723;28;20453;-42
2023/07/24 06:19:20;;;;;;;4.72;4.00;;;19.30;99.90;;;;;;5047794;28;20040;-41
2023/07/24 06:21:45;;;;;;;4.82;4.10;;;19.30;99.90;;;;;;5048614;28;20052;-41
2023/07/24 06:24:12;;;;;;;4.18;3.78;;;19.30;99.90;;;;;;5049481;28;20545;-41
2023/07/24 06:26:38;;;;;;;3.97;3.58;;;19.30;99.90;;;;;;5048050;28;20025;-41
2023/07/24 06:29:04;;;;;;;4.32;3.92;;;19.30;99.90;;;;;;5048913;28;20028;-40
2023/07/24 06:31:29;;;;;;;4.78;4.38;;;19.40;99.90;;;;;;5048844;28;20021;-42
2023/07/24 06:33:55;;;;;;;5.05;4.20;;;19.40;99.90;;;;;;5047862;28;20035;-41
2023/07/24 06:36:21;;;;;;;4.35;3.80;;;19.40;99.90;;;;;;5048804;28;20380;-42
2023/07/24 06:38:47;;;;;;;4.75;4.30;;;19.50;99.90;;;;;;5047834;28;20124;-41
2023/07/24 06:41:16;;;;;;;4.95;4.45;;;19.50;99.90;;;;;;5048197;28;20033;-42
2023/07/24 06:43:42;;;;;;;4.55;4.05;;;19.60;99.90;;;;;;5048247;28;20016;-42
2023/07/24 06:46:08;;;;;;;4.93;4.43;;;19.70;99.90;;;;;;5047717;28;20140;-42
2023/07/24 06:48:34;;;;;;;5.50;4.28;;;19.80;99.90;;;;;;5048187;28;20104;-42
2023/07/24 06:50:59;;;;;;;5.10;4.60;;;19.70;99.90;;;;;;5048665;28;20025;-42
2023/07/24 06:53:25;;;;;;;5.80;5.28;;;19.70;99.90;;;;;;5047915;28;20017;-42
2023/07/24 06:55:53;;;;;;;4.95;4.47;;;19.60;99.90;;;;;;5048260;28;20047;-42
2023/07/24 06:58:19;;;;;;;5.70;4.88;;;19.50;99.90;;;;;;5047366;28;20047;-42
2023/07/24 07:00:44;;;;;;;5.65;5.15;;;19.50;99.90;;;;;;5047772;28;20404;-42
2023/07/24 07:03:10;;;;;;;5.13;4.63;;;19.50;99.90;;;;;;5047521;28;20040;-42
2023/07/24 07:05:35;;;;;;;5.25;4.75;;;19.50;99.90;;;;;;5048384;28;20028;-42
2023/07/24 07:08:01;;;;;;;5.32;4.68;;;19.60;99.90;;;;;;5046976;28;20727;-42
2023/07/24 07:10:26;;;;;;;5.00;4.50;;;19.70;99.90;;;;;;5048140;28;20078;-41
2023/07/24 07:12:52;;;;;;;6.70;5.45;;;19.80;99.90;;;;;;5048101;28;20087;-42
2023/07/24 07:15:17;;;;;;;5.57;5.00;;;20.00;99.90;;;;;;5047378;28;20035;-42
2023/07/24 07:17:43;;;;;;;7.55;6.45;;;20.10;99.90;;;;;;5047755;28;20616;-43
2023/07/24 07:20:09;;;;;;;6.28;5.70;;;20.20;99.90;;;;;;5047720;28;20993;-42
2023/07/24 07:22:34;;;;;;;6.93;6.22;;;20.20;99.90;;;;;;5046152;28;20032;-42
2023/07/24 07:25:00;;;;;;;6.78;6.18;;;20.20;99.90;;;;;;5047329;28;20071;-42
2023/07/24 07:27:26;;;;;;;7.28;6.57;;;20.30;99.90;;;;;;5048484;28;20025;-42
2023/07/24 07:29:51;;;;;;;6.65;6.05;;;20.30;99.90;;;;;;5045663;28;20032;-42
2023/07/24 07:32:17;;;;;;;6.75;5.85;;;20.20;99.90;;;;;;5047655;28;20248;-42
2023/07/24 07:34:42;;;;;;;8.05;5.93;;;20.30;99.90;;;;;;5047434;28;20470;-42
2023/07/24 07:37:08;;;;;;;5.90;5.32;;;20.20;99.90;;;;;;5046695;28;20087;-42
2023/07/24 07:39:33;;;;;;;7.93;7.10;;;20.30;99.90;;;;;;5046983;28;20032;-42
2023/07/24 07:41:59;;;;;;;7.15;6.38;;;20.30;99.90;;;;;;5047420;28;20035;-41
2023/07/24 07:44:24;;;;;;;7.38;6.68;;;20.40;99.90;;;;;;5047054;28;20420;-41
2023/07/24 07:46:50;;;;;;;7.20;6.50;;;20.40;99.90;;;;;;5047401;28;20060;-41
2023/07/24 07:49:15;;;;;;;6.85;6.10;;;20.40;99.90;;;;;;5047158;28;20062;-41
2023/07/24 07:51:41;;;;;;;6.55;5.93;;;20.50;99.90;;;;;;5047345;28;20100;-41
2023/07/24 07:54:09;;;;;;;8.15;7.35;;;20.50;99.90;;;;;;5046966;28;20025;-41
2023/07/24 07:56:35;;;;;;;6.15;5.55;;;20.70;99.90;;;;;;5046352;28;20029;-41
2023/07/24 07:59:01;;;;;;;6.70;6.00;;;20.80;99.90;;;;;;5046502;28;20496;-42
2023/07/24 08:01:26;;;;;;;7.43;6.30;;;20.90;99.90;;;;;;5046842;28;20037;-43
2023/07/24 08:03:52;;;;;;;6.70;5.75;;;20.90;99.90;;;;;;5046449;28;20079;-42
2023/07/24 08:06:24;;;;;;;9.48;6.75;;;20.80;99.90;;;;;;5046648;28;20039;-42
2023/07/24 08:08:49;;;;;;;;;;;20.70;99.90;;;;;;5027685;28;20053;-43
2023/07/24 08:11:15;;;;;;;7.95;6.47;;;20.50;99.90;;;;;;5039764;28;19915;-42
2023/07/24 08:13:41;;;;;;;7.32;6.63;;;20.30;99.90;;;;;;5047011;28;20103;-42
2023/07/24 08:16:19;;;;;;;6.43;5.75;;;20.20;99.90;;;;;;5047244;28;20108;-42
2023/07/24 08:18:48;;;;;;;6.50;5.90;;;20.10;99.90;;;;;;5046142;28;20040;-41
2023/07/24 08:21:14;;;;;;;6.90;6.22;;;20.00;99.90;;;;;;5046396;28;20369;-42
2023/07/24 08:23:41;;;;;;;6.40;5.72;;;19.90;99.90;;;;;;5045992;28;20032;-41
2023/07/24 08:26:07;;;;;;;7.10;5.65;;;19.90;99.90;;;;;;5045840;28;20029;-42
2023/07/24 08:28:35;;;;;;;7.30;6.60;;;19.90;99.90;;;;;;5046745;28;20418;-42
2023/07/24 08:31:04;;;;;;;6.97;6.28;;;19.90;99.90;;;;;;5046015;28;20052;-42
2023/07/24 08:33:30;;;;;;;7.57;6.88;;;20.10;99.90;;;;;;5046268;28;20631;-42
2023/07/24 08:36:04;;;;;;;9.48;8.05;;;20.30;99.90;;;;;;5046130;28;20028;-42
2023/07/24 08:38:30;;;;;;;8.80;7.65;;;20.50;99.90;;;;;;5034682;28;20033;-42
2023/07/24 08:41:10;;;;;;;8.27;7.47;;;20.60;99.90;;;;;;5046851;28;20032;-42
2023/07/24 08:43:38;;;;;;;8.18;7.22;;;20.70;99.90;;;;;;5045854;28;20106;-42
2023/07/24 08:46:04;;;;;;;6.40;5.80;;;20.80;99.90;;;;;;5044963;28;20036;-42
2023/07/24 08:48:35;;;;;;;7.00;6.40;;;20.80;99.90;;;;;;5045993;28;20025;-42
2023/07/24 08:51:02;;;;;;;7.55;6.82;;;20.90;99.90;;;;;;5045971;28;20456;-42
2023/07/24 08:53:30;;;;;;;7.32;6.63;;;21.10;99.90;;;;;;5045665;28;20389;-42
2023/07/24 08:55:56;;;;;;;6.88;6.18;;;21.20;99.90;;;;;;5046031;28;20047;-43
2023/07/24 08:58:25;;;;;;;6.00;5.50;;;21.20;99.90;;;;;;5045691;28;20051;-43
2023/07/24 09:00:55;;;;;;;6.60;6.00;;;21.30;99.90;;;;;;5045613;28;20355;-42
2023/07/24 09:03:21;;;;;;;7.32;6.20;;;21.40;99.90;;;;;;5046069;28;20064;-42
2023/07/24 09:05:47;;;;;;;7.13;6.07;;;21.40;99.90;;;;;;5046146;28;20102;-41
2023/07/24 09:08:33;;;;;;;6.45;5.85;;;21.50;99.90;;;;;;5045055;28;20045;-42
2023/07/24 09:11:00;;;;;;;6.35;5.85;;;21.60;99.90;;;;;;5038276;28;20045;-42
2023/07/24 09:13:26;;;;;;;6.38;5.78;;;21.70;99.90;;;;;;5040493;28;20028;-42
2023/07/24 09:15:52;;;;;;;6.10;5.50;;;21.70;99.90;;;;;;5045337;28;20028;-42
2023/07/24 09:18:18;;;;;;;5.93;5.43;;;21.70;99.90;;;;;;5045407;28;20067;-41
2023/07/24 09:20:44;;;;;;;6.93;6.32;;;21.70;99.90;;;;;;5044880;28;20140;-43
2023/07/24 09:23:28;;;;;;;6.30;5.70;;;21.80;99.90;;;;;;5045496;28;20036;-41
2023/07/24 09:25:54;;;;;;;5.63;5.13;;;21.80;99.90;;;;;;5045170;28;20053;-41
2023/07/24 09:28:20;;;;;;;5.47;4.97;;;21.80;99.90;;;;;;5044551;28;20025;-42
2023/07/24 09:31:00;;;;;;;6.47;5.78;;;21.90;99.90;;;;;;5045839;28;20075;-42
2023/07/24 09:33:40;;;;;;;5.70;5.20;;;21.90;99.90;;;;;;5045566;28;20028;-42
2023/07/24 09:36:08;;;;;;;6.53;5.93;;;21.90;99.90;;;;;;5044599;28;20048;-43
2023/07/24 09:38:35;;;;;;;5.95;5.00;;;21.80;99.90;;;;;;5045380;28;20025;-42
2023/07/24 09:41:05;;;;;;;5.85;4.97;;;21.80;99.90;;;;;;5045710;28;20038;-42
2023/07/24 09:43:31;;;;;;;5.55;5.05;;;21.80;99.90;;;;;;5044191;28;20017;-42
2023/07/24 09:45:57;;;;;;;5.30;4.80;;;21.70;99.90;;;;;;5045912;28;20457;-42
2023/07/24 09:48:25;;;;;;;5.30;4.80;;;21.80;99.90;;;;;;5044772;28;20053;-42
2023/07/24 09:50:57;;;;;;;5.72;4.65;;;21.80;99.90;;;;;;5044083;28;20029;-42
2023/07/24 09:53:48;;;;;;;5.40;4.65;;;21.80;99.90;;;;;;5044444;28;20029;-42
2023/07/24 09:56:17;;;;;;;5.25;4.28;;;21.80;99.90;;;;;;5035272;28;20033;-42
2023/07/24 09:58:44;;;;;;;7.30;4.93;;;21.90;99.90;;;;;;5044725;28;20657;-41
2023/07/24 10:01:10;;;;;;;4.57;4.10;;;21.90;99.90;;;;;;5044741;28;20108;-41
2023/07/24 10:03:39;;;;;;;5.65;4.22;;;21.90;99.90;;;;;;5044357;28;20033;-41
2023/07/24 10:06:10;;;;;;;4.60;4.20;;;21.90;99.90;;;;;;5045184;28;20064;-42
2023/07/24 10:08:36;;;;;;;4.30;3.90;;;21.90;99.90;;;;;;5044792;28;20055;-42
2023/07/24 10:11:02;;;;;;;5.85;4.43;;;22.00;99.90;;;;;;5043998;28;20057;-41
2023/07/24 10:13:29;;;;;;;4.53;4.10;;;21.90;99.90;;;;;;5045117;28;20064;-41
2023/07/24 10:15:55;;;;;;;4.43;4.00;;;21.80;99.90;;;;;;5044569;28;20055;-42
2023/07/24 10:18:26;;;;;;;4.32;3.92;;;21.70;99.90;;;;;;5044807;28;20056;-42
2023/07/24 10:21:02;;;;;;;5.85;4.35;;;21.70;99.90;;;;;;5044642;28;20111;-42
2023/07/24 10:23:28;;;;;;;4.78;4.32;;;21.70;99.90;;;;;;5025747;28;20056;-42
2023/07/24 10:26:03;;;;;;;5.10;4.60;;;21.80;99.90;;;;;;5039306;28;20096;-42
2023/07/24 10:28:33;;;;;;;4.30;3.80;;;21.90;99.90;;;;;;5025732;28;20040;-42
2023/07/24 10:31:00;;;;;;;5.53;4.80;;;22.00;99.90;;;;;;5039036;28;20025;-42
2023/07/24 10:33:30;;;;;;;4.93;4.43;;;22.00;99.90;;;;;;5045774;28;20057;-42
2023/07/24 10:36:09;;;;;;;4.88;4.47;;;22.00;99.90;;;;;;5045024;28;20159;-43
2023/07/24 10:38:38;;;;;;;5.70;4.32;;;21.90;99.90;;;;;;5043985;28;20045;-42
2023/07/24 10:41:05;;;;;;;5.47;4.97;;;22.00;99.90;;;;;;5044591;28;20032;-42
2023/07/24 10:43:41;;;;;;;4.90;4.40;;;22.10;99.90;;;;;;5045221;28;20036;-42
2023/07/24 10:46:07;;;;;;;5.35;4.80;;;22.10;99.90;;;;;;5044292;28;20469;-42
2023/07/24 10:48:33;;;;;;;5.93;4.95;;;22.10;99.90;;;;;;5044416;28;20033;-42
2023/07/24 10:51:05;;;;;;;4.00;3.70;;;22.00;99.90;;;;;;5044299;28;20017;-43
2023/07/24 10:53:30;;;;;;;;;;;22.00;99.90;;;;;;5044515;28;20029;-43
2023/07/24 10:55:56;;;;;;;4.40;3.85;;;22.00;99.90;;;;;;5045289;28;19909;-42
2023/07/24 10:58:25;;;;;;;3.45;3.15;;;22.00;99.90;;;;;;5044763;28;20495;-42
2023/07/24 11:00:50;;;;;;;3.45;3.15;;;22.00;99.90;;;;;;5043878;28;20107;-43
2023/07/24 11:03:17;;;;;;;4.80;3.75;;;22.10;99.90;;;;;;5044207;28;20071;-43
2023/07/24 11:05:44;;;;;;;4.80;3.70;;;22.00;99.90;;;;;;5046732;28;20040;-42
2023/07/24 11:08:15;;;;;;;3.75;3.42;;;22.00;99.90;;;;;;5046729;28;20116;-43
2023/07/24 11:10:52;;;;;;;5.07;3.70;;;22.00;99.90;;;;;;5048033;28;20032;-42
2023/07/24 11:13:26;;;;;;;5.95;3.55;;;22.10;99.90;;;;;;5047601;28;20032;-42
2023/07/24 11:15:53;;;;;;;4.00;3.25;;;22.00;99.90;;;;;;5047667;28;20107;-42
2023/07/24 11:18:21;;;;;;;4.28;3.20;;;22.10;99.90;;;;;;5047637;28;20033;-42
2023/07/24 11:20:52;;;;;;;3.17;2.88;;;22.20;99.90;;;;;;5047271;28;20098;-43
2023/07/24 11:23:18;;;;;;;4.35;3.95;;;22.40;99.90;;;;;;5047777;28;20502;-42
2023/07/24 11:25:44;;;;;;;4.65;4.20;;;22.50;99.90;;;;;;5047718;28;20036;-42
2023/07/24 11:28:12;;;;;;;4.78;4.32;;;22.60;99.90;;;;;;5046938;28;20107;-43
2023/07/24 11:30:38;;;;;;;4.60;4.20;;;22.60;99.90;;;;;;5047899;28;20028;-43
2023/07/24 11:33:07;;;;;;;4.47;3.80;;;22.60;99.90;;;;;;5047283;28;20021;-42
2023/07/24 11:35:33;;;;;;;4.15;3.47;;;22.60;99.90;;;;;;5047402;28;20029;-42
2023/07/24 11:37:59;;;;;;;5.22;4.68;;;22.60;99.90;;;;;;5047608;28;20021;-42
2023/07/24 11:40:40;;;;;;;5.85;4.15;;;22.50;99.90;;;;;;5047592;28;20029;-42
2023/07/24 11:43:19;;;;;;;4.40;4.00;;;22.40;99.90;;;;;;5046627;28;20384;-41
2023/07/24 11:45:46;;;;;;;5.30;3.88;;;22.40;99.90;;;;;;5047561;28;20029;-41
2023/07/24 11:48:13;;;;;;;4.35;3.95;;;22.40;99.90;;;;;;5047177;28;20025;-41
2023/07/24 11:50:43;;;;;;;5.50;3.70;;;22.40;99.90;;;;;;5047239;28;20025;-41
2023/07/24 11:53:36;;;;;;;3.97;3.60;;;22.40;99.90;;;;;;5047334;28;20028;-41
2023/07/24 11:56:13;;;;;;;5.43;4.93;;;22.50;99.90;;;;;;5046158;28;20122;-41
2023/07/24 11:58:42;;;;;;;5.03;4.43;;;22.70;99.90;;;;;;5046993;28;20037;-41
2023/07/24 12:01:07;;;;;;;4.40;4.00;;;22.70;99.90;;;;;;5047804;28;20032;-41
2023/07/24 12:03:33;;;;;;;3.67;3.38;;;22.80;99.90;;;;;;5046251;28;20025;-42
2023/07/24 12:05:59;;;;;;;4.53;3.92;;;22.80;99.90;;;;;;5047185;28;20432;-41
2023/07/24 12:08:37;;;;;;;3.95;3.55;;;23.00;99.90;;;;;;5047499;28;20442;-41
2023/07/24 12:11:03;;;;;;;3.97;3.40;;;23.00;99.90;;;;;;5047010;28;20025;-41
2023/07/24 12:13:29;;;;;;;4.15;3.20;;;23.20;99.90;;;;;;5047297;28;20019;-41
2023/07/24 12:15:54;;;;;;;3.80;3.38;;;23.20;99.90;;;;;;5046918;28;20029;-41
2023/07/24 12:18:20;;;;;;;4.72;3.60;;;23.30;99.90;;;;;;5046207;28;20389;-41
2023/07/24 12:20:47;;;;;;;3.90;3.50;;;23.40;99.90;;;;;;5046942;28;20622;-41
2023/07/24 12:23:12;;;;;;;5.07;3.60;;;23.40;99.90;;;;;;5046939;28;20025;-41
2023/07/24 12:25:38;;;;;;;4.65;3.25;;;23.40;99.90;;;;;;5045651;28;20036;-42
2023/07/24 12:28:03;;;;;;;4.53;3.47;;;23.40;99.90;;;;;;5046209;28;20029;-42
2023/07/24 12:30:32;;;;;;;5.15;3.75;;;23.30;99.90;;;;;;5046287;28;20032;-41
2023/07/24 12:32:58;;;;;;;5.25;4.03;;;23.30;99.90;;;;;;5046633;28;20021;-42
2023/07/24 12:35:32;;;;;;;6.20;4.85;;;23.20;99.90;;;;;;5046353;28;20052;-41
2023/07/24 12:37:58;;;;;;;4.95;3.55;;;23.20;99.90;;;;;;5046057;28;20492;-42
2023/07/24 12:40:27;;;;;;;4.43;3.83;;;23.00;99.90;;;;;;5046588;28;20033;-41
2023/07/24 12:42:55;;;;;;;4.55;3.72;;;22.80;99.90;;;;;;5046061;28;20867;-41
2023/07/24 12:45:21;;;;;;;4.80;4.13;;;22.70;99.90;;;;;;5045340;28;20021;-42
2023/07/24 12:47:49;;;;;;;4.00;3.60;;;22.60;99.90;;;;;;5046114;28;20044;-41
2023/07/24 12:50:15;;;;;;;4.85;3.78;;;22.60;99.90;;;;;;5046418;28;20020;-42